Time;durP1;ratioP1;P1;durP2;ratioP2;P2;SDS_P1;SDS_P2;PMS_P1;PMS_P2;Temp;Humidity;BMP_temperature;BMP_pressure;BME280_temperature;BME280_humidity;BME280_pressure;Samples;Min_cycle;Max_cycle;Signal;HPM_P1;HPM_P2
2022/02/17 00:00:38;;;;;;;21.40;5.57;;;;;;;9.97;100.00;99306.34;6296799;22;20034;-75
2022/02/17 00:03:14;;;;;;;24.15;5.10;;;;;;;9.94;100.00;99295.84;6296609;22;20061;-72
2022/02/17 00:06:01;;;;;;;26.60;5.38;;;;;;;9.87;100.00;99299.78;6294864;22;20030;-72
2022/02/17 00:09:00;;;;;;;24.25;6.07;;;;;;;9.84;100.00;99305.28;6248028;22;20084;-72
2022/02/17 00:11:30;;;;;;;29.92;5.88;;;;;;;9.75;100.00;99295.13;6294717;22;20065;-71
2022/02/17 00:14:06;;;;;;;29.13;5.70;;;;;;;9.71;100.00;99311.25;6295256;22;20027;-77
2022/02/17 00:16:37;;;;;;;21.75;5.75;;;;;;;9.73;100.00;99300.53;6296169;22;20027;-72
2022/02/17 00:19:28;;;;;;;22.70;5.18;;;;;;;9.78;100.00;99310.94;6294217;22;20023;-72
2022/02/17 00:22:19;;;;;;;24.55;5.85;;;;;;;9.73;100.00;99308.53;6295930;22;20023;-73
2022/02/17 00:28:04;;;;;;;35.08;6.10;;;;;;;9.71;100.00;99335.25;6271302;22;20031;-70
2022/02/17 00:30:43;;;;;;;30.88;5.63;;;;;;;9.48;100.00;99383.50;6297908;22;20019;-71
2022/02/17 00:33:13;;;;;;;36.13;6.50;;;;;;;9.34;100.00;99401.00;6296804;22;20069;-71
2022/02/17 00:35:45;;;;;;;24.70;5.68;;;;;;;9.12;100.00;99363.97;6270201;22;20106;-72
2022/02/17 00:38:25;;;;;;;21.48;3.90;;;;;;;9.05;100.00;99394.47;6296787;22;20023;-70
2022/02/17 00:40:57;;;;;;;19.13;5.32;;;;;;;9.07;100.00;99397.06;6269500;22;20090;-71
2022/02/17 00:43:48;;;;;;;20.70;5.03;;;;;;;9.02;100.00;99386.63;6271673;22;20138;-72
2022/02/17 00:49:34;;;;;;;16.83;3.75;;;;;;;9.05;100.00;99369.66;6293505;22;20073;-71
2022/02/17 00:52:26;;;;;;;21.58;6.13;;;;;;;9.06;100.00;99364.28;6295633;22;20027;-71
2022/02/17 00:57:42;;;;;;;31.30;8.20;;;;;;;8.90;100.00;99389.91;6296710;22;20086;-70
2022/02/17 01:00:14;;;;;;;25.17;5.40;;;;;;;8.88;100.00;99410.41;6295345;22;20030;-72
2022/02/17 01:02:43;;;;;;;25.77;6.10;;;;;;;8.86;100.00;99406.94;6295728;22;20443;-72
2022/02/17 01:05:11;;;;;;;26.73;4.97;;;;;;;8.81;100.00;99428.44;6296297;22;20118;-72
2022/02/17 01:10:28;;;;;;;24.58;4.72;;;;;;;8.86;100.00;99423.75;6296443;22;20095;-69
2022/02/17 01:12:58;;;;;;;18.33;4.45;;;;;;;8.86;100.00;99404.28;6295966;22;20015;-72
2022/02/17 01:15:29;;;;;;;19.58;4.68;;;;;;;8.81;100.00;99436.41;6295460;22;20019;-72
2022/02/17 01:17:59;;;;;;;24.90;4.05;;;;;;;8.77;100.00;99438.38;6297741;22;20303;-72
2022/02/17 01:23:25;;;;;;;16.75;4.35;;;;;;;8.78;100.00;99434.78;6295879;22;20019;-69
2022/02/17 01:29:14;;;;;;;29.05;4.78;;;;;;;8.88;100.00;99456.47;6296198;22;20027;-69
2022/02/17 01:31:59;;;;;;;23.13;4.57;;;;;;;8.83;100.00;99447.00;6272538;22;20027;-69
2022/02/17 01:34:55;;;;;;;22.27;4.78;;;;;;;8.85;100.00;99438.00;6294528;22;20027;-69
2022/02/17 01:37:42;;;;;;;17.95;3.58;;;;;;;8.86;100.00;99468.13;6294593;22;20029;-69
2022/02/17 01:40:16;;;;;;;21.55;4.40;;;;;;;8.77;100.00;99472.94;6292771;22;20045;-69
2022/02/17 01:42:47;;;;;;;19.88;4.40;;;;;;;8.76;100.00;99457.91;6289727;22;20043;-70
2022/02/17 01:45:24;;;;;;;20.98;3.33;;;;;;;8.77;100.00;99464.09;6295710;22;20051;-69
2022/02/17 01:47:56;;;;;;;25.20;3.85;;;;;;;8.79;100.00;99496.81;6269415;22;20023;-73
2022/02/17 01:50:26;;;;;;;21.33;4.07;;;;;;;8.70;100.00;99499.88;6295448;22;20099;-73
2022/02/17 01:52:59;;;;;;;17.50;3.70;;;;;;;8.67;100.00;99495.56;6294743;22;20252;-70
2022/02/17 01:55:45;;;;;;;20.40;4.30;;;;;;;8.71;100.00;99513.09;6296927;22;20092;-71
2022/02/17 01:58:23;;;;;;;19.80;4.55;;;;;;;8.67;100.00;99540.78;6269910;22;20031;-74
2022/02/17 02:00:51;;;;;;;23.40;3.97;;;;;;;8.61;100.00;99517.13;6296363;22;20019;-74
2022/02/17 02:03:19;;;;;;;22.90;4.30;;;;;;;8.61;100.00;99514.44;6295514;22;20046;-74
2022/02/17 02:05:50;;;;;;;21.67;4.68;;;;;;;8.59;100.00;99526.97;6295323;22;20811;-75
2022/02/17 02:08:28;;;;;;;17.83;3.65;;;;;;;8.54;100.00;99537.78;6294550;22;20027;-71
2022/02/17 02:11:05;;;;;;;16.25;4.78;;;;;;;8.51;100.00;99556.56;6293651;22;20047;-71
2022/02/17 02:13:43;;;;;;;17.33;3.85;;;;;;;8.53;100.00;99544.06;6295837;22;20015;-70
2022/02/17 02:16:28;;;;;;;18.95;3.95;;;;;;;8.49;100.00;99568.19;6295401;22;20023;-71
2022/02/17 02:19:14;;;;;;;23.63;5.07;;;;;;;8.48;100.00;99569.09;6295853;22;20034;-70
2022/02/17 02:21:46;;;;;;;20.00;3.95;;;;;;;8.50;100.00;99560.13;6295328;22;20240;-71
2022/02/17 02:30:29;;;;;;;25.10;4.05;;;;;;;8.42;100.00;99599.44;6292179;22;20023;-71
2022/02/17 02:33:03;;;;;;;24.65;5.40;;;;;;;8.39;100.00;99610.19;6268351;22;20053;-71
2022/02/17 02:35:48;;;;;;;17.73;4.28;;;;;;;8.39;100.00;99595.13;6293185;22;20019;-75
2022/02/17 02:38:19;;;;;;;25.45;5.32;;;;;;;8.39;100.00;99632.34;6295828;22;20456;-75
2022/02/17 02:40:48;;;;;;;22.77;4.88;;;;;;;8.35;100.00;99635.19;6296610;22;20072;-76
2022/02/17 02:43:15;;;;;;;12.73;3.10;;;;;;;8.33;100.00;99645.03;6296121;22;20015;-76
2022/02/17 02:45:44;;;;;;;22.42;6.18;;;;;;;8.34;100.00;99650.28;6296974;22;20031;-76
2022/02/17 02:48:14;;;;;;;19.83;3.70;;;;;;;8.30;100.00;99643.34;6296276;22;20098;-77
2022/02/17 02:50:43;;;;;;;17.20;4.35;;;;;;;8.30;100.00;99671.75;6297831;22;20027;-77
2022/02/17 02:53:14;;;;;;;15.95;3.35;;;;;;;8.25;100.00;99655.97;6295141;22;20027;-78
2022/02/17 02:55:45;;;;;;;12.10;4.35;;;;;;;8.27;100.00;99666.53;6298265;22;20023;-77
2022/02/17 02:58:14;;;;;;;15.63;3.78;;;;;;;8.19;100.00;99670.38;6296852;22;20027;-76
2022/02/17 03:00:42;;;;;;;19.45;4.18;;;;;;;8.14;100.00;99663.50;6295938;22;20023;-77
2022/02/17 03:03:11;;;;;;;21.55;4.45;;;;;;;8.15;100.00;99678.53;6295706;22;20027;-77
2022/02/17 03:05:40;;;;;;;18.40;4.05;;;;;;;8.06;100.00;99700.19;6295360;22;20027;-76
2022/02/17 03:08:11;;;;;;;13.05;4.00;;;;;;;8.15;100.00;99702.44;6297032;22;20077;-76
2022/02/17 03:10:46;;;;;;;20.88;4.30;;;;;;;8.20;100.00;99701.31;6296525;22;20053;-76
2022/02/17 03:13:14;;;;;;;17.98;4.30;;;;;;;8.24;100.00;99696.78;6296753;22;20457;-78
2022/02/17 03:15:42;;;;;;;21.75;4.88;;;;;;;8.26;100.00;99686.06;6296411;22;20023;-77
2022/02/17 03:18:10;;;;;;;13.68;4.03;;;;;;;8.14;100.00;99714.88;6296284;22;20023;-77
2022/02/17 03:20:40;;;;;;;18.13;4.50;;;;;;;8.11;100.00;99704.38;6296998;22;20061;-76
2022/02/17 03:23:09;;;;;;;15.70;3.65;;;;;;;8.16;100.00;99693.56;6295645;22;20031;-77
2022/02/17 03:25:36;;;;;;;21.85;6.07;;;;;;;8.15;100.00;99719.25;6295960;22;20098;-76
2022/02/17 03:28:06;;;;;;;18.30;4.15;;;;;;;8.17;100.00;99713.88;6295292;22;20125;-75
2022/02/17 03:30:36;;;;;;;21.50;4.47;;;;;;;8.13;100.00;99729.06;6296893;22;20084;-76
2022/02/17 03:33:06;;;;;;;14.23;3.65;;;;;;;8.08;100.00;99714.25;6297573;22;20182;-77
2022/02/17 03:35:34;;;;;;;22.88;4.22;;;;;;;8.06;100.00;99740.88;6295253;22;20023;-75
2022/02/17 03:38:02;;;;;;;17.38;4.15;;;;;;;7.99;100.00;99724.31;6295979;22;20073;-75
2022/02/17 03:40:30;;;;;;;15.73;4.38;;;;;;;7.98;100.00;99727.88;6294660;22;20119;-76
2022/02/17 03:43:00;;;;;;;25.33;5.05;;;;;;;7.95;100.00;99745.75;6295122;22;20083;-75
2022/02/17 03:45:30;;;;;;;26.23;5.07;;;;;;;7.98;100.00;99740.31;6295377;22;20485;-76
2022/02/17 03:47:58;;;;;;;20.67;4.18;;;;;;;7.95;100.00;99741.31;6295219;22;20066;-76
2022/02/17 03:50:27;;;;;;;16.15;3.78;;;;;;;8.04;100.00;99735.63;6295415;22;20035;-76
2022/02/17 03:52:55;;;;;;;25.17;5.03;;;;;;;8.06;100.00;99759.47;6294622;22;20023;-76
2022/02/17 03:55:23;;;;;;;24.50;4.95;;;;;;;7.97;100.00;99751.88;6298396;22;20019;-76
2022/02/17 03:57:51;;;;;;;22.35;5.18;;;;;;;8.06;100.00;99762.13;6296732;22;20045;-74
2022/02/17 04:00:18;;;;;;;20.67;5.68;;;;;;;7.96;100.00;99797.94;6296723;22;20027;-78
2022/02/17 04:02:48;;;;;;;26.52;5.68;;;;;;;8.00;100.00;99794.25;6296296;22;20030;-75
2022/02/17 04:05:16;;;;;;;23.17;5.72;;;;;;;7.90;100.00;99809.69;6296781;22;20054;-75
2022/02/17 04:07:46;;;;;;;28.13;6.47;;;;;;;7.90;100.00;99820.31;6298610;22;20058;-76
2022/02/17 04:10:14;;;;;;;32.42;5.18;;;;;;;7.86;100.00;99816.88;6296975;22;20034;-77
2022/02/17 04:12:42;;;;;;;24.98;4.28;;;;;;;7.96;100.00;99820.06;6297537;22;20023;-77
2022/02/17 04:15:11;;;;;;;14.38;3.78;;;;;;;7.93;100.00;99821.97;6298126;22;20099;-77
2022/02/17 04:17:44;;;;;;;22.27;5.10;;;;;;;7.90;100.00;99811.44;6299635;22;20019;-76
2022/02/17 04:20:13;;;;;;;18.17;3.80;;;;;;;7.92;100.00;99834.41;6297545;22;20038;-76
2022/02/17 04:22:41;;;;;;;23.92;5.35;;;;;;;7.93;100.00;99840.56;6298025;22;20058;-76
2022/02/17 04:25:10;;;;;;;26.08;6.03;;;;;;;7.91;100.00;99851.25;6299482;22;20019;-75
2022/02/17 04:27:39;;;;;;;30.10;6.35;;;;;;;7.91;100.00;99848.59;6298120;22;20058;-76
2022/02/17 04:30:08;;;;;;;33.83;7.30;;;;;;;7.89;100.00;99876.13;6298608;22;20103;-76
2022/02/17 04:32:36;;;;;;;32.90;6.60;;;;;;;7.88;100.00;99880.56;6296657;22;20065;-76
2022/02/17 04:43:13;;;;;;;27.10;5.82;;;;;;;7.84;100.00;99893.09;6290232;22;20697;-74
2022/02/17 04:54:27;;;;;;;22.30;6.93;;;;;;;8.00;100.00;99908.47;6215086;22;20101;-73
2022/02/17 04:57:00;;;;;;;31.92;6.20;;;;;;;8.13;100.00;99895.63;6294592;22;20019;-77
2022/02/17 05:00:16;;;;;;;22.98;5.28;;;;;;;8.07;100.00;99906.47;6296751;22;20023;-73
2022/02/17 05:20:23;;;;;;;31.02;6.15;;;;;;;8.17;100.00;99983.16;6296191;22;20027;-77
2022/02/17 05:22:54;;;;;;;23.90;6.00;;;;;;;8.14;100.00;99993.00;6296455;22;20518;-76
2022/02/17 05:36:28;;;;;;;17.60;4.65;;;;;;;7.96;100.00;100026.41;6231167;23;20040;-74
2022/02/17 05:38:55;;;;;;;28.10;4.95;;;;;;;7.99;100.00;100021.00;6230500;23;20035;-76
2022/02/17 05:41:23;;;;;;;17.73;3.55;;;;;;;7.93;100.00;100035.34;6232027;23;20060;-78
2022/02/17 05:43:51;;;;;;;20.38;4.53;;;;;;;7.90;100.00;100037.22;6230559;23;20532;-77
2022/02/17 06:08:27;;;;;;;16.23;3.47;;;;;;;7.61;100.00;100077.13;6135619;23;20060;-78
2022/02/17 06:10:55;;;;;;;17.70;4.63;;;;;;;7.60;100.00;100093.09;6142714;23;20017;-77
2022/02/17 06:13:25;;;;;;;16.58;4.18;;;;;;;7.58;100.00;100100.25;6141794;23;20029;-78
2022/02/17 06:15:53;;;;;;;14.57;3.33;;;;;;;7.53;100.00;100104.84;6141534;23;20021;-78
2022/02/17 06:18:21;;;;;;;18.85;4.80;;;;;;;7.57;100.00;100114.44;6141242;23;20609;-77
2022/02/17 06:54:35;;;;;;;10.98;3.22;;;;;;;7.45;100.00;100224.53;6168833;23;20346;-75
2022/02/17 06:58:39;;;;;;;19.70;4.28;;;;;;;7.38;100.00;100228.28;6111775;23;20026;-75
2022/02/17 07:20:48;;;;;;;20.27;3.40;;;;;;;7.07;100.00;100290.16;6053304;23;20027;-78
2022/02/17 07:23:17;;;;;;;12.18;3.17;;;;;;;7.09;100.00;100297.13;6054480;23;20138;-78
2022/02/17 07:25:46;;;;;;;9.38;3.42;;;;;;;7.14;100.00;100291.72;6053219;23;20053;-78
2022/02/17 07:28:15;;;;;;;10.98;3.00;;;;;;;7.13;100.00;100295.28;6053923;23;20092;-79
2022/02/17 07:30:44;;;;;;;15.73;2.85;;;;;;;7.09;100.00;100322.81;6052495;23;20137;-78
2022/02/17 07:33:13;;;;;;;14.45;3.30;;;;;;;7.08;100.00;100332.56;6051084;23;20160;-78
2022/02/17 07:35:42;;;;;;;22.13;3.58;;;;;;;7.08;100.00;100334.31;6052534;23;20058;-78
2022/02/17 07:38:31;;;;;;;16.83;3.17;;;;;;;7.13;100.00;100323.59;6053269;23;20041;-77
2022/02/17 07:41:01;;;;;;;9.80;3.10;;;;;;;7.17;100.00;100331.44;6076488;23;20106;-77
2022/02/17 07:43:29;;;;;;;12.75;3.00;;;;;;;7.24;100.00;100343.63;6077378;23;20026;-77
2022/02/17 07:49:41;;;;;;;18.23;3.85;;;;;;;7.15;100.00;100372.19;6187776;23;20159;-77
2022/02/17 07:52:10;;;;;;;22.67;3.80;;;;;;;7.14;100.00;100359.84;6200130;23;20090;-77
2022/02/17 07:54:43;;;;;;;12.20;3.20;;;;;;;7.17;100.00;100354.44;6200511;23;20100;-78
2022/02/17 07:57:13;;;;;;;20.15;3.28;;;;;;;7.20;100.00;100380.91;6200909;23;20058;-77
2022/02/17 07:59:44;;;;;;;19.67;3.22;;;;;;;7.16;100.00;100377.47;6201287;23;20017;-78
2022/02/17 08:02:19;;;;;;;10.77;2.67;;;;;;;7.18;100.00;100388.03;6199320;23;20095;-77
2022/02/17 08:04:47;;;;;;;10.35;3.72;;;;;;;7.18;99.28;100375.63;6200569;23;20067;-77
2022/02/17 08:07:17;;;;;;;11.30;2.83;;;;;;;7.28;93.87;100393.06;6201866;23;20047;-77
2022/02/17 08:09:47;;;;;;;15.55;3.55;;;;;;;7.28;94.48;100401.03;6285769;22;20019;-77
2022/02/17 08:12:15;;;;;;;8.10;2.60;;;;;;;7.33;93.75;100398.25;6295442;22;20022;-77
2022/02/17 08:14:44;;;;;;;11.93;2.60;;;;;;;7.37;93.10;100412.31;6295997;22;20027;-78
2022/02/17 08:17:15;;;;;;;15.30;3.90;;;;;;;7.35;94.80;100430.94;6296388;22;20031;-76
2022/02/17 08:19:43;;;;;;;16.58;3.47;;;;;;;7.46;92.93;100436.84;6296513;22;20023;-78
2022/02/17 08:22:11;;;;;;;14.10;3.42;;;;;;;7.43;95.18;100434.28;6297568;22;20144;-77
2022/02/17 08:24:40;;;;;;;17.15;3.75;;;;;;;7.48;95.58;100452.75;6296818;22;20098;-78
2022/02/17 08:27:10;;;;;;;13.60;2.78;;;;;;;7.47;95.35;100457.19;6295348;22;20023;-78
2022/02/17 08:29:42;;;;;;;16.77;3.83;;;;;;;7.46;98.14;100442.16;6295582;22;20345;-78
2022/02/17 08:35:48;;;;;;;14.73;3.30;;;;;;;7.57;98.74;100459.59;6292220;22;20027;-77
2022/02/17 08:38:16;;;;;;;11.55;2.92;;;;;;;7.60;96.16;100455.09;6295642;22;20544;-78
2022/02/17 08:40:47;;;;;;;15.88;3.20;;;;;;;7.63;96.99;100476.25;6295546;22;20023;-79
2022/02/17 08:43:22;;;;;;;8.63;2.42;;;;;;;7.66;96.26;100488.56;6295584;22;20061;-77
2022/02/17 08:45:50;;;;;;;13.32;2.50;;;;;;;7.61;95.60;100479.84;6295517;22;20028;-77
2022/02/17 08:48:21;;;;;;;14.88;2.95;;;;;;;7.60;96.27;100473.66;6298790;22;20440;-78
2022/02/17 08:50:51;;;;;;;9.98;2.33;;;;;;;7.67;95.27;100504.47;6295706;22;20046;-78
2022/02/17 08:53:20;;;;;;;11.98;3.25;;;;;;;7.71;96.38;100468.06;6294303;22;20027;-77
2022/02/17 08:55:54;;;;;;;8.75;3.10;;;;;;;7.85;95.82;100487.19;6296931;22;20021;-79
2022/02/17 08:58:30;;;;;;;11.80;2.42;;;;;;;7.90;93.70;100486.19;6296269;22;20068;-78
2022/02/17 09:00:58;;;;;;;14.57;3.22;;;;;;;7.95;93.03;100494.91;6297077;22;20352;-78
2022/02/17 09:03:28;;;;;;;10.60;2.95;;;;;;;8.14;95.17;100504.13;6293507;22;20484;-79
2022/02/17 09:06:02;;;;;;;23.45;3.83;;;;;;;8.03;96.20;100490.25;6295798;22;20247;-75
2022/02/17 09:08:45;;;;;;;16.23;3.53;;;;;;;8.17;97.59;100522.66;6295490;22;20027;-78
2022/02/17 09:11:19;;;;;;;12.30;2.90;;;;;;;8.23;95.04;100479.09;6296871;22;20027;-79
2022/02/17 09:13:49;;;;;;;12.05;2.60;;;;;;;8.28;94.65;100508.22;6297144;22;20562;-77
2022/02/17 09:16:18;;;;;;;18.27;3.28;;;;;;;8.29;91.94;100533.84;6295258;22;20033;-80
2022/02/17 09:18:46;;;;;;;13.57;3.10;;;;;;;8.39;91.78;100527.38;6295916;22;20019;-78
2022/02/17 09:21:16;;;;;;;25.88;4.20;;;;;;;8.33;86.43;100536.41;6295636;22;20019;-84
2022/02/17 09:23:46;;;;;;;15.23;2.50;;;;;;;8.45;80.23;100539.69;6296492;22;20162;-81
2022/02/17 09:30:27;;;;;;;10.65;2.85;;;;;;;8.60;74.53;100536.56;6295592;22;20034;-74
2022/02/17 09:33:09;;;;;;;13.13;2.83;;;;;;;8.61;74.40;100551.59;6296192;22;20461;-79
2022/02/17 09:35:41;;;;;;;11.35;3.60;;;;;;;8.77;73.82;100552.06;6296537;22;20023;-77
2022/02/17 09:38:13;;;;;;;11.38;2.15;;;;;;;8.74;73.26;100546.81;6297624;22;20262;-77
2022/02/17 09:40:42;;;;;;;14.88;3.65;;;;;;;8.66;72.96;100568.31;6297683;22;20063;-78
2022/02/17 09:43:11;;;;;;;11.80;3.05;;;;;;;8.80;72.98;100573.22;6297270;22;20069;-76
2022/02/17 09:45:44;;;;;;;11.60;3.55;;;;;;;8.87;72.76;100561.50;6297686;22;20054;-77
2022/02/17 09:48:17;;;;;;;14.45;2.72;;;;;;;8.77;72.88;100570.69;6297439;22;20015;-78
2022/02/17 09:50:50;;;;;;;17.58;2.88;;;;;;;8.91;72.77;100562.28;6294501;22;20074;-80
2022/02/17 09:53:18;;;;;;;9.63;2.40;;;;;;;9.01;73.80;100585.03;6293410;22;20382;-78
2022/02/17 10:18:07;;;;;;;11.55;2.58;;;;;;;9.21;69.83;100628.81;6121716;23;20400;-79
2022/02/17 10:20:54;;;;;;;12.20;2.72;;;;;;;9.37;70.19;100635.44;6141800;23;20060;-79
2022/02/17 10:23:23;;;;;;;12.00;2.83;;;;;;;9.20;69.81;100630.63;6141696;23;20048;-81
2022/02/17 10:26:02;;;;;;;12.70;3.38;;;;;;;9.45;70.83;100651.16;6141793;23;20315;-80
2022/02/17 10:28:34;;;;;;;17.13;4.13;;;;;;;9.32;69.83;100638.22;6141631;23;20053;-81
2022/02/17 10:31:07;;;;;;;14.45;3.33;;;;;;;9.45;69.68;100656.50;6141013;23;20044;-80
2022/02/17 11:11:50;;;;;;;12.68;2.30;;;;;;;10.36;70.93;100705.19;5805543;24;20512;-79
2022/02/17 11:14:38;;;;;;;13.70;2.80;;;;;;;9.80;69.75;100723.84;5832054;24;20095;-80
2022/02/17 11:17:10;;;;;;;11.18;2.67;;;;;;;9.50;70.33;100727.38;5832327;24;20026;-79
2022/02/17 11:19:53;;;;;;;12.40;2.63;;;;;;;9.91;70.32;100711.06;5832137;24;20041;-79
2022/02/17 11:22:28;;;;;;;7.10;2.13;;;;;;;9.32;69.53;100722.56;5832267;24;20256;-79
2022/02/17 11:45:10;;;;;;;9.40;2.42;;;;;;;9.94;70.38;100732.25;5702135;25;20163;-75
2022/02/17 11:48:33;;;;;;;5.55;1.88;;;;;;;10.01;69.11;100741.84;5714961;24;20034;-79
2022/02/17 12:13:55;;;;;;;11.93;2.58;;;;;;;10.06;70.64;100753.22;5872411;24;20029;-79
2022/02/17 12:16:38;;;;;;;14.02;2.97;;;;;;;10.35;72.38;100743.47;5941818;24;20049;-77
2022/02/17 12:19:14;;;;;;;14.15;3.17;;;;;;;10.17;71.86;100742.22;5941742;24;20502;-79
2022/02/17 12:21:43;;;;;;;13.48;3.13;;;;;;;10.22;72.82;100750.94;5991408;23;20023;-78
2022/02/17 12:24:12;;;;;;;19.33;3.95;;;;;;;10.41;74.49;100748.56;5998096;23;20080;-80
2022/02/17 12:26:44;;;;;;;15.65;3.50;;;;;;;10.44;73.81;100759.16;5999041;23;20059;-79
2022/02/17 12:29:33;;;;;;;18.90;4.45;;;;;;;10.29;74.02;100759.63;5998469;23;20403;-76
2022/02/17 12:32:18;;;;;;;20.98;4.57;;;;;;;10.51;73.32;100753.63;5997285;23;20027;-77
2022/02/17 12:37:32;;;;;;;16.30;3.65;;;;;;;10.55;73.38;100747.25;5996865;23;20024;-77
2022/02/17 12:40:08;;;;;;;15.07;3.42;;;;;;;10.51;72.16;100762.50;6056835;23;20086;-74
2022/02/17 12:42:42;;;;;;;17.20;2.95;;;;;;;10.34;72.19;100751.50;6112943;23;20069;-76
2022/02/17 12:45:15;;;;;;;13.02;3.20;;;;;;;10.29;71.38;100770.28;6113049;23;20053;-76
2022/02/17 12:47:44;;;;;;;20.00;4.07;;;;;;;10.32;72.69;100788.00;6113764;23;20053;-77
2022/02/17 12:50:12;;;;;;;20.08;3.38;;;;;;;10.24;72.27;100782.88;6112408;23;20029;-74
2022/02/17 12:52:51;;;;;;;12.35;3.45;;;;;;;10.36;71.99;100763.84;6110822;23;20522;-77
2022/02/17 12:55:19;;;;;;;19.15;3.35;;;;;;;10.34;72.57;100762.19;6140944;23;20021;-77
2022/02/17 12:57:52;;;;;;;10.60;2.88;;;;;;;9.96;70.75;100772.19;6141883;23;20037;-75
2022/02/17 13:00:22;;;;;;;10.90;3.03;;;;;;;10.01;70.61;100770.25;6142649;23;20139;-76
2022/02/17 13:02:56;;;;;;;10.27;3.05;;;;;;;10.25;69.92;100787.31;6139736;23;20551;-76
2022/02/17 13:05:24;;;;;;;9.95;3.33;;;;;;;10.17;69.43;100781.34;6142226;23;20124;-78
2022/02/17 13:07:56;;;;;;;16.17;3.40;;;;;;;10.31;69.02;100791.56;6141810;23;20035;-77
2022/02/17 13:10:25;;;;;;;14.38;2.58;;;;;;;10.10;68.83;100786.00;6141438;23;20022;-76
2022/02/17 13:12:57;;;;;;;8.93;2.83;;;;;;;9.71;69.34;100818.25;6141935;23;20087;-77
2022/02/17 13:15:26;;;;;;;8.02;2.28;;;;;;;9.67;69.86;100822.78;6141699;23;20383;-77
2022/02/17 13:17:54;;;;;;;7.15;2.42;;;;;;;9.48;70.59;100837.53;6142228;23;20479;-75
2022/02/17 13:20:24;;;;;;;14.35;2.58;;;;;;;9.83;69.58;100838.34;6140953;23;20025;-76
2022/02/17 13:22:57;;;;;;;13.10;2.85;;;;;;;9.71;69.13;100845.75;6140389;23;20104;-75
2022/02/17 13:25:34;;;;;;;14.20;2.47;;;;;;;9.55;70.23;100855.06;6141514;23;20048;-75
2022/02/17 13:28:17;;;;;;;10.50;3.13;;;;;;;9.53;70.10;100868.47;6141443;23;20029;-75
2022/02/17 13:30:47;;;;;;;9.05;1.95;;;;;;;9.70;69.45;100872.44;6141519;23;20372;-75
2022/02/17 13:33:20;;;;;;;16.67;3.28;;;;;;;9.13;70.43;100871.31;6141197;23;20426;-78
2022/02/17 13:35:53;;;;;;;9.63;2.38;;;;;;;8.89;72.95;100860.34;6142813;23;20115;-77
2022/02/17 13:38:30;;;;;;;11.40;2.53;;;;;;;9.14;73.27;100871.28;6142245;23;20028;-77
2022/02/17 13:40:59;;;;;;;9.57;3.08;;;;;;;8.90;73.44;100872.72;6191269;23;20035;-77
2022/02/17 13:43:45;;;;;;;9.10;2.22;;;;;;;9.08;73.69;100892.72;6199821;23;20025;-77
2022/02/17 13:46:15;;;;;;;10.75;2.33;;;;;;;8.82;71.68;100919.06;6201660;23;20059;-77
2022/02/17 13:48:43;;;;;;;5.65;1.85;;;;;;;8.77;70.91;100903.25;6201681;23;20067;-76
2022/02/17 13:51:14;;;;;;;7.72;2.67;;;;;;;8.81;69.67;100920.00;6200327;23;20451;-76
2022/02/17 13:53:47;;;;;;;7.65;2.53;;;;;;;8.46;70.17;100933.16;6198496;23;20096;-76
2022/02/17 13:56:17;;;;;;;7.85;1.88;;;;;;;8.50;70.67;100929.53;6212969;22;20043;-76
2022/02/17 13:58:46;;;;;;;8.68;2.05;;;;;;;8.41;71.40;100922.63;6295849;22;20023;-77
2022/02/17 14:01:19;;;;;;;6.90;2.53;;;;;;;8.67;72.41;100918.53;6294966;22;20022;-76
2022/02/17 14:03:48;;;;;;;8.95;1.98;;;;;;;8.76;72.10;100938.72;6295611;22;20516;-75
2022/02/17 14:06:19;;;;;;;9.73;2.05;;;;;;;8.75;72.93;100947.59;6296348;22;20055;-76
2022/02/17 14:08:48;;;;;;;7.03;1.90;;;;;;;8.85;74.51;100956.25;6296290;22;20073;-76
2022/02/17 14:11:17;;;;;;;9.07;2.03;;;;;;;8.93;74.98;100973.78;6296175;22;20057;-76
2022/02/17 14:13:45;;;;;;;6.75;2.10;;;;;;;8.72;75.74;100955.69;6295359;22;20046;-76
2022/02/17 14:16:16;;;;;;;8.23;2.35;;;;;;;8.62;74.95;100965.63;6294367;22;20027;-76
2022/02/17 14:18:45;;;;;;;10.05;2.60;;;;;;;8.53;75.70;100972.03;6296505;22;20058;-76
2022/02/17 14:21:16;;;;;;;12.57;2.85;;;;;;;8.63;74.40;100982.47;6294990;22;20069;-76
2022/02/17 14:23:46;;;;;;;8.93;2.78;;;;;;;8.58;74.14;100971.91;6297829;22;20089;-75
2022/02/17 14:26:15;;;;;;;10.77;2.47;;;;;;;8.79;74.28;100971.44;6294784;22;20083;-76
2022/02/17 14:28:44;;;;;;;10.23;2.85;;;;;;;9.01;74.22;100973.63;6295571;22;20019;-77
2022/02/17 14:31:18;;;;;;;11.73;2.33;;;;;;;8.71;73.89;100967.22;6294751;22;20496;-74
2022/02/17 14:33:46;;;;;;;11.75;2.47;;;;;;;8.69;72.41;100990.31;6295112;22;20057;-74
2022/02/17 14:36:14;;;;;;;15.20;2.30;;;;;;;8.86;72.86;100979.31;6295229;22;20023;-76
2022/02/17 14:38:46;;;;;;;9.45;2.85;;;;;;;8.85;72.24;100980.19;6296068;22;20025;-76
2022/02/17 14:41:17;;;;;;;12.43;2.30;;;;;;;8.62;72.29;100970.09;6295664;22;20604;-76
2022/02/17 14:43:49;;;;;;;14.18;2.20;;;;;;;8.61;72.55;100966.53;6294913;22;20054;-77
2022/02/17 14:46:19;;;;;;;10.15;2.42;;;;;;;8.45;72.63;100979.28;6296094;22;20027;-76
2022/02/17 14:48:46;;;;;;;11.50;2.72;;;;;;;8.37;72.90;100967.91;6295600;22;20023;-76
2022/02/17 14:51:15;;;;;;;11.70;2.42;;;;;;;8.37;71.28;100967.91;6296186;22;20451;-74
2022/02/17 14:53:43;;;;;;;8.30;2.10;;;;;;;8.49;72.75;100986.28;6295128;22;20019;-75
2022/02/17 14:56:19;;;;;;;6.80;2.22;;;;;;;8.47;71.49;100982.78;6296929;22;20022;-75
2022/02/17 14:58:49;;;;;;;10.13;2.75;;;;;;;8.31;71.29;100997.28;6295871;22;20019;-75
2022/02/17 15:01:19;;;;;;;11.65;2.88;;;;;;;8.37;72.17;100981.19;6295382;22;20037;-75
2022/02/17 15:03:47;;;;;;;8.52;2.17;;;;;;;8.38;71.33;100983.84;6296453;22;20055;-76
2022/02/17 15:06:15;;;;;;;8.73;2.22;;;;;;;8.32;72.32;100985.75;6296596;22;20038;-76
2022/02/17 15:08:46;;;;;;;13.38;2.95;;;;;;;8.37;72.15;100986.53;6297162;22;20118;-77
2022/02/17 15:11:15;;;;;;;12.30;2.22;;;;;;;8.30;71.33;101006.16;6296885;22;20023;-78
2022/02/17 15:13:44;;;;;;;12.40;2.67;;;;;;;8.37;71.89;100997.16;6298278;22;20057;-75
2022/02/17 15:16:18;;;;;;;9.90;2.63;;;;;;;8.38;72.36;100991.81;6294825;22;20328;-75
2022/02/17 15:18:50;;;;;;;18.83;4.22;;;;;;;8.26;72.17;101007.13;6295699;22;20595;-76
2022/02/17 15:21:18;;;;;;;12.40;2.15;;;;;;;8.26;72.63;100994.72;6295047;22;20054;-76
2022/02/17 15:23:46;;;;;;;10.25;2.55;;;;;;;8.26;71.90;101009.78;6296118;22;20026;-76
2022/02/17 15:26:17;;;;;;;10.40;2.53;;;;;;;8.23;70.99;101013.38;6296112;22;20043;-75
2022/02/17 15:28:45;;;;;;;14.43;2.97;;;;;;;8.20;70.69;101018.75;6294820;22;20026;-76
2022/02/17 15:31:13;;;;;;;11.85;2.70;;;;;;;8.26;71.41;101020.41;6295683;22;20160;-76
2022/02/17 15:33:41;;;;;;;11.85;2.63;;;;;;;8.20;70.41;101018.75;6295760;22;20080;-76
2022/02/17 15:36:18;;;;;;;11.02;2.80;;;;;;;8.23;70.01;101022.22;6297352;22;20042;-76
2022/02/17 15:38:46;;;;;;;9.57;3.10;;;;;;;8.12;69.95;101013.59;6293420;22;20023;-77
2022/02/17 15:41:19;;;;;;;6.78;2.08;;;;;;;8.17;70.16;101019.72;6295826;22;20031;-75
2022/02/17 15:43:47;;;;;;;8.43;1.90;;;;;;;8.07;67.99;101020.78;6296160;22;20030;-75
2022/02/17 15:46:20;;;;;;;8.73;2.40;;;;;;;8.05;68.98;101027.88;6295469;22;20061;-77
2022/02/17 15:48:48;;;;;;;10.57;2.58;;;;;;;8.01;69.10;101037.69;6297628;22;20102;-76
2022/02/17 15:51:16;;;;;;;9.18;2.15;;;;;;;8.00;69.11;101037.72;6298344;22;20139;-76
2022/02/17 15:53:46;;;;;;;7.97;2.38;;;;;;;7.95;69.17;101019.25;6297874;22;20043;-76
2022/02/17 15:56:16;;;;;;;11.18;2.78;;;;;;;7.97;68.94;101027.19;6298405;22;20453;-75
2022/02/17 15:58:45;;;;;;;12.85;2.33;;;;;;;7.99;69.10;101026.22;6298525;22;20031;-75
2022/02/17 16:01:13;;;;;;;12.68;3.05;;;;;;;7.99;68.73;101034.22;6296694;22;20029;-75
2022/02/17 16:03:42;;;;;;;11.13;2.75;;;;;;;7.94;69.57;101027.22;6297478;22;20046;-75
2022/02/17 16:06:21;;;;;;;7.63;2.25;;;;;;;7.88;68.67;101030.84;6272346;22;20082;-75
2022/02/17 16:08:52;;;;;;;8.35;2.45;;;;;;;8.00;69.12;101030.66;6297307;22;20020;-75
2022/02/17 16:11:23;;;;;;;6.85;2.22;;;;;;;7.99;68.64;101026.22;6297076;22;20074;-74